Egan, Iowa
Current Conditions -  °F | °C
As of 11:15 PM on Sunday 19 Oct 2014 (Local Time) from KPDC Reporting Station
Clear Clear  
Wind Chill: 53°   Ceiling: Unl
Heat Index: 53°   Visibility: 10mi
Dew Point: 43°   Wind: 0mph
Humidity: 68%   Direction: NA
Pressure: 29.81"   Gusts: NA
Location:  43.1584°N, 91.2436°W
Report Text: KPDC 200415Z AUTO 00000KT 10SM CLR 12/06 A2981 RMK AO2 T01190062
Loading
Personal Weather Stations






























Interactive Weather Map
Tropical Storm Tracking
New forecast layout! Learn more

10-Day Weather Forecast

Advertisements
Track Severe Weather on mobile